createdAt,value
2018-02-25T00:00:55.396Z,-5.69
2018-02-25T00:01:54.655Z,-5.63
2018-02-25T00:02:54.281Z,-5.74
2018-02-25T00:03:54.125Z,-5.58
2018-02-25T00:04:54.486Z,-5.69
2018-02-25T00:05:54.542Z,-5.6
2018-02-25T00:06:54.519Z,-5.63
2018-02-25T00:07:54.594Z,-5.73
2018-02-25T00:08:54.634Z,-5.62
2018-02-25T00:09:54.559Z,-5.62
2018-02-25T00:10:55.378Z,-5.68
2018-02-25T00:11:54.309Z,-5.6
2018-02-25T00:12:55.204Z,-5.65
2018-02-25T00:13:55.121Z,-5.62
2018-02-25T00:14:55.032Z,-5.65
2018-02-25T00:15:55.146Z,-5.55
2018-02-25T00:16:55.601Z,-5.6
2018-02-25T00:17:55.210Z,-5.74
2018-02-25T00:18:55.075Z,-5.76
2018-02-25T00:19:56.325Z,-5.74
2018-02-25T00:20:55.998Z,-5.73
2018-02-25T00:21:56.707Z,-5.76
2018-02-25T00:22:56.195Z,-5.68
2018-02-25T00:23:56.984Z,-5.76
2018-02-25T00:24:57.657Z,-5.79
2018-02-25T00:25:56.732Z,-5.8
2018-02-25T00:26:57.149Z,-5.83
2018-02-25T00:27:57.388Z,-5.7
2018-02-25T00:28:57.684Z,-5.76
2018-02-25T00:29:56.883Z,-5.83
2018-02-25T00:30:58.561Z,-5.83
2018-02-25T00:31:58.153Z,-5.86
2018-02-25T00:32:58.602Z,-5.91
2018-02-25T00:33:58.119Z,-5.97
2018-02-25T00:34:58.657Z,-5.98
2018-02-25T00:35:58.682Z,-6.04
2018-02-25T00:36:57.761Z,-6.04
2018-02-25T00:37:57.268Z,-6.07
2018-02-25T00:38:58.860Z,-6.08
2018-02-25T00:39:58.736Z,-6.02
2018-02-25T00:40:58.744Z,-6.15
2018-02-25T00:41:58.718Z,-6.16
2018-02-25T00:42:59.185Z,-6.18
2018-02-25T00:43:58.869Z,-6.23
2018-02-25T00:44:59.169Z,-6.31
2018-02-25T00:45:59.080Z,-6.25
2018-02-25T00:46:59.214Z,-6.26
2018-02-25T00:47:58.934Z,-6.33
2018-02-25T00:48:58.613Z,-6.4
2018-02-25T00:49:59.256Z,-6.4
2018-02-25T00:50:57.699Z,-6.46
2018-02-25T00:51:59.260Z,-6.44
2018-02-25T00:52:58.226Z,-6.48
2018-02-25T00:53:58.177Z,-6.44
2018-02-25T00:54:57.912Z,-6.41
2018-02-25T00:55:58.467Z,-6.58
2018-02-25T00:56:58.538Z,-6.51
2018-02-25T00:57:59.472Z,-6.63
2018-02-25T00:58:58.715Z,-6.73
2018-02-25T00:59:58.714Z,-6.68
2018-02-25T01:00:58.780Z,-6.63
2018-02-25T01:01:58.850Z,-6.73
2018-02-25T01:02:58.276Z,-6.7
2018-02-25T01:03:58.694Z,-6.68
2018-02-25T01:04:59.864Z,-6.71
2018-02-25T01:05:59.865Z,-6.76
2018-02-25T01:06:59.328Z,-6.76
2018-02-25T01:07:59.212Z,-6.76
2018-02-25T01:08:59.153Z,-6.77
2018-02-25T01:09:59.376Z,-6.65
2018-02-25T01:10:59.412Z,-6.74
2018-02-25T01:11:59.893Z,-6.78
2018-02-25T01:12:59.904Z,-6.73
2018-02-25T01:13:59.762Z,-6.8
2018-02-25T01:14:59.658Z,-6.77
2018-02-25T01:15:59.504Z,-6.91
2018-02-25T01:17:00.186Z,-6.89
2018-02-25T01:18:00.424Z,-6.89
2018-02-25T01:19:00.207Z,-6.91
2018-02-25T01:20:00.592Z,-6.92
2018-02-25T01:21:00.097Z,-6.95
2018-02-25T01:22:00.117Z,-6.97
2018-02-25T01:23:00.225Z,-6.99
2018-02-25T01:23:59.923Z,-6.97
2018-02-25T01:24:59.622Z,-6.99
2018-02-25T01:26:00.145Z,-6.95
2018-02-25T01:27:00.104Z,-7.02
2018-02-25T01:28:00.596Z,-7.06
2018-02-25T01:29:00.629Z,-7.06
2018-02-25T01:30:00.706Z,-7.13
2018-02-25T01:31:01.175Z,-7.02
2018-02-25T01:32:00.526Z,-6.99
2018-02-25T01:33:00.855Z,-6.97
2018-02-25T01:34:00.544Z,-6.95
2018-02-25T01:35:00.565Z,-6.91
2018-02-25T01:36:00.774Z,-6.95
2018-02-25T01:37:00.697Z,-6.88
2018-02-25T01:38:00.695Z,-6.97
2018-02-25T01:39:01.263Z,-7.01
2018-02-25T01:40:01.204Z,-7.05
2018-02-25T01:41:00.722Z,-6.99
2018-02-25T01:42:01.681Z,-7.06
2018-02-25T01:43:01.349Z,-7.05
2018-02-25T01:44:01.417Z,-7.02
2018-02-25T01:45:01.274Z,-7.05
2018-02-25T01:46:01.310Z,-7.13
2018-02-25T01:47:01.307Z,-7.05
2018-02-25T01:48:01.485Z,-7.07
2018-02-25T01:49:01.322Z,-7.2
2018-02-25T01:50:02.189Z,-7.19
2018-02-25T01:51:01.899Z,-7.17
2018-02-25T01:52:02.583Z,-7.15
2018-02-25T01:53:02.483Z,-7.28
2018-02-25T01:54:02.194Z,-7.28
2018-02-25T01:55:02.253Z,-7.22
2018-02-25T01:56:03.260Z,-7.17
2018-02-25T01:57:03.001Z,-7.34
2018-02-25T01:58:02.898Z,-7.36
2018-02-25T01:59:02.862Z,-7.33
2018-02-25T02:00:22.349Z,-7.28
2018-02-25T02:01:03.792Z,-7.36
2018-02-25T02:02:03.352Z,-7.36
2018-02-25T02:03:04.033Z,-7.36
2018-02-25T02:04:03.387Z,-7.28
2018-02-25T02:05:03.520Z,-7.34
2018-02-25T02:06:03.301Z,-7.36
2018-02-25T02:07:03.503Z,-7.38
2018-02-25T02:08:03.203Z,-7.27
2018-02-25T02:09:04.087Z,-7.37
2018-02-25T02:10:04.290Z,-7.37
2018-02-25T02:11:04.616Z,-7.36
2018-02-25T02:12:04.413Z,-7.2
2018-02-25T02:13:03.732Z,-7.28
2018-02-25T02:14:04.017Z,-7.26
2018-02-25T02:15:03.817Z,-7.31
2018-02-25T02:16:04.214Z,-7.27
2018-02-25T02:17:04.405Z,-7.27
2018-02-25T02:18:05.724Z,-7.3
2018-02-25T02:19:04.706Z,-7.28
2018-02-25T02:20:04.873Z,-7.31
2018-02-25T02:21:04.837Z,-7.31
2018-02-25T02:22:04.867Z,-7.3
2018-02-25T02:23:04.941Z,-7.27
2018-02-25T02:24:05.419Z,-7.17
2018-02-25T02:25:05.365Z,-7.2
2018-02-25T02:26:05.382Z,-7.26
2018-02-25T02:27:05.339Z,-7.31
2018-02-25T02:28:05.816Z,-7.2
2018-02-25T02:29:06.110Z,-7.3
2018-02-25T02:30:05.504Z,-7.24
2018-02-25T02:31:05.950Z,-7.26
2018-02-25T02:32:06.551Z,-7.28
2018-02-25T02:33:06.984Z,-7.37
2018-02-25T02:34:07.341Z,-7.38
2018-02-25T02:35:07.681Z,-7.34
2018-02-25T02:36:07.136Z,-7.31
2018-02-25T02:37:07.277Z,-7.36
2018-02-25T02:38:07.903Z,-7.44
2018-02-25T02:39:07.482Z,-7.51
2018-02-25T02:40:08.071Z,-7.59
2018-02-25T02:41:07.774Z,-7.67
2018-02-25T02:42:08.048Z,-7.75
2018-02-25T02:43:08.337Z,-7.75
2018-02-25T02:44:08.623Z,-7.8
2018-02-25T02:45:08.610Z,-7.88
2018-02-25T02:46:08.628Z,-7.94
2018-02-25T02:47:08.636Z,-7.91
2018-02-25T02:48:08.409Z,-7.94
2018-02-25T02:49:08.725Z,-7.98
2018-02-25T02:50:08.885Z,-7.98
2018-02-25T02:51:09.913Z,-7.96
2018-02-25T02:52:09.283Z,-7.96
2018-02-25T02:53:09.544Z,-7.98
2018-02-25T02:54:09.474Z,-7.91
2018-02-25T02:55:09.841Z,-8.02
2018-02-25T02:56:09.687Z,-7.96
2018-02-25T02:57:09.788Z,-7.98
2018-02-25T02:58:09.301Z,-7.9
2018-02-25T02:59:09.836Z,-7.93
2018-02-25T03:00:16.493Z,-8.03
2018-02-25T03:01:16.351Z,-7.96
2018-02-25T03:02:16.611Z,-8.05
2018-02-25T03:03:16.398Z,-7.98
2018-02-25T03:04:17.055Z,-8.02
2018-02-25T03:05:16.114Z,-8.02
2018-02-25T03:06:16.674Z,-7.98
2018-02-25T03:07:16.682Z,-8.07
2018-02-25T03:08:17.693Z,-8.06
2018-02-25T03:09:17.324Z,-8.07
2018-02-25T03:10:16.984Z,-8.07
2018-02-25T03:11:17.304Z,-8.1
2018-02-25T03:12:17.021Z,-8.2
2018-02-25T03:13:17.386Z,-8.1
2018-02-25T03:14:17.530Z,-8.13
2018-02-25T03:15:17.969Z,-8.16
2018-02-25T03:16:18.021Z,-7.98
2018-02-25T03:17:17.713Z,-7.99
2018-02-25T03:18:17.829Z,-8.06
2018-02-25T03:19:18.200Z,-8.09
2018-02-25T03:20:18.034Z,-8.06
2018-02-25T03:21:18.582Z,-8.05
2018-02-25T03:22:18.536Z,-8.13
2018-02-25T03:23:18.347Z,-8.1
2018-02-25T03:24:18.382Z,-8.13
2018-02-25T03:25:18.831Z,-8.12
2018-02-25T03:26:19.071Z,-8.13
2018-02-25T03:27:19.063Z,-8.15
2018-02-25T03:28:19.007Z,-7.99
2018-02-25T03:29:19.224Z,-7.96
2018-02-25T03:30:19.281Z,-8.02
2018-02-25T03:31:19.486Z,-8.05
2018-02-25T03:32:19.592Z,-8.12
2018-02-25T03:33:19.990Z,-8.12
2018-02-25T03:34:19.868Z,-8.12
2018-02-25T03:35:20.365Z,-8.07
2018-02-25T03:36:20.123Z,-8.1
2018-02-25T03:37:20.534Z,-8.13
2018-02-25T03:38:20.946Z,-8.09
2018-02-25T03:39:20.940Z,-8.16
2018-02-25T03:40:20.957Z,-8.18
2018-02-25T03:41:21.363Z,-8.15
2018-02-25T03:42:21.355Z,-8.18
2018-02-25T03:43:21.250Z,-8.15
2018-02-25T03:44:21.776Z,-8.2
2018-02-25T03:45:21.694Z,-8.26
2018-02-25T03:46:21.822Z,-8.18
2018-02-25T03:47:22.254Z,-8.12
2018-02-25T03:48:22.254Z,-8.2
2018-02-25T03:49:22.673Z,-8.23
2018-02-25T03:50:22.424Z,-8.23
2018-02-25T03:51:22.611Z,-8.24
2018-02-25T03:52:23.242Z,-8.31
2018-02-25T03:53:23.276Z,-8.3
2018-02-25T03:54:23.011Z,-8.33
2018-02-25T03:55:23.004Z,-8.34
2018-02-25T03:56:24.162Z,-8.39
2018-02-25T03:57:24.051Z,-8.38
2018-02-25T03:58:23.688Z,-8.33
2018-02-25T03:59:24.056Z,-8.38
2018-02-25T04:00:40.325Z,-8.42
2018-02-25T04:01:40.747Z,-8.44
2018-02-25T04:02:40.454Z,-8.49
2018-02-25T04:03:40.229Z,-8.46
2018-02-25T04:04:40.495Z,-8.51
2018-02-25T04:05:40.790Z,-8.52
2018-02-25T04:06:40.970Z,-8.45
2018-02-25T04:07:40.996Z,-8.57
2018-02-25T04:08:41.344Z,-8.54
2018-02-25T04:09:41.370Z,-8.46
2018-02-25T04:10:41.674Z,-8.51
2018-02-25T04:11:42.084Z,-8.62
2018-02-25T04:12:42.490Z,-8.62
2018-02-25T04:13:42.147Z,-8.54
2018-02-25T04:14:43.462Z,-8.52
2018-02-25T04:15:42.384Z,-8.54
2018-02-25T04:16:42.572Z,-8.51
2018-02-25T04:17:42.649Z,-8.56
2018-02-25T04:18:42.655Z,-8.56
2018-02-25T04:19:42.678Z,-8.51
2018-02-25T04:20:42.707Z,-8.46
2018-02-25T04:21:42.453Z,-8.48
2018-02-25T04:22:42.826Z,-8.46
2018-02-25T04:23:42.741Z,-8.46
2018-02-25T04:24:42.877Z,-8.57
2018-02-25T04:25:44.467Z,-8.6
2018-02-25T04:26:43.143Z,-8.54
2018-02-25T04:27:43.818Z,-8.59
2018-02-25T04:28:43.842Z,-8.57
2018-02-25T04:29:44.183Z,-8.56
2018-02-25T04:30:44.325Z,-8.56
2018-02-25T04:31:44.268Z,-8.65
2018-02-25T04:32:44.414Z,-8.62
2018-02-25T04:33:44.690Z,-8.62
2018-02-25T04:34:44.886Z,-8.59
2018-02-25T04:35:44.501Z,-8.57
2018-02-25T04:36:45.148Z,-8.59
2018-02-25T04:37:45.354Z,-8.57
2018-02-25T04:38:45.368Z,-8.57
2018-02-25T04:39:45.817Z,-8.52
2018-02-25T04:40:45.574Z,-8.54
2018-02-25T04:41:46.233Z,-8.45
2018-02-25T04:42:46.267Z,-8.49
2018-02-25T04:43:46.099Z,-8.54
2018-02-25T04:44:46.015Z,-8.48
2018-02-25T04:45:46.408Z,-8.56
2018-02-25T04:46:46.739Z,-8.59
2018-02-25T04:47:46.283Z,-8.59
2018-02-25T04:48:46.684Z,-8.56
2018-02-25T04:49:46.987Z,-8.51
2018-02-25T04:50:47.564Z,-8.51
2018-02-25T04:51:47.416Z,-8.65
2018-02-25T04:52:46.999Z,-8.52
2018-02-25T04:53:46.758Z,-8.49
2018-02-25T04:54:47.439Z,-8.54
2018-02-25T04:55:47.439Z,-8.54
2018-02-25T04:56:47.888Z,-8.46
2018-02-25T04:57:47.907Z,-8.52
2018-02-25T04:58:48.019Z,-8.52
2018-02-25T04:59:48.086Z,-8.52
2018-02-25T05:00:48.079Z,-8.6
2018-02-25T05:01:47.557Z,-8.49
2018-02-25T05:02:48.075Z,-8.51
2018-02-25T05:03:48.155Z,-8.51
2018-02-25T05:04:48.029Z,-8.45
2018-02-25T05:05:48.446Z,-8.51
2018-02-25T05:06:48.329Z,-8.45
2018-02-25T05:07:48.032Z,-8.44
2018-02-25T05:08:48.091Z,-8.38
2018-02-25T05:09:48.501Z,-8.36
2018-02-25T05:10:48.763Z,-8.38
2018-02-25T05:11:48.450Z,-8.41
2018-02-25T05:12:48.973Z,-8.3
2018-02-25T05:13:49.282Z,-8.38
2018-02-25T05:14:48.763Z,-8.38
2018-02-25T05:15:48.694Z,-8.39
2018-02-25T05:16:49.330Z,-8.41
2018-02-25T05:17:49.059Z,-8.41
2018-02-25T05:18:49.023Z,-8.39
2018-02-25T05:19:49.071Z,-8.48
2018-02-25T05:20:49.000Z,-8.49
2018-02-25T05:21:49.379Z,-8.56
2018-02-25T05:22:49.537Z,-8.45
2018-02-25T05:23:49.976Z,-8.54
2018-02-25T05:24:50.338Z,-8.48
2018-02-25T05:25:50.737Z,-8.54
2018-02-25T05:26:51.124Z,-8.57
2018-02-25T05:27:51.538Z,-8.52
2018-02-25T05:28:51.012Z,-8.51
2018-02-25T05:29:51.567Z,-8.46
2018-02-25T05:30:51.841Z,-8.51
2018-02-25T05:31:51.279Z,-8.57
2018-02-25T05:32:51.594Z,-8.6
2018-02-25T05:33:51.804Z,-8.66
2018-02-25T05:34:52.197Z,-8.51
2018-02-25T05:35:52.673Z,-8.56
2018-02-25T05:36:52.867Z,-8.63
2018-02-25T05:37:52.431Z,-8.52
2018-02-25T05:38:52.503Z,-8.51
2018-02-25T05:39:52.729Z,-8.56
2018-02-25T05:40:52.606Z,-8.56
2018-02-25T05:41:53.164Z,-8.57
2018-02-25T05:42:53.562Z,-8.51
2018-02-25T05:43:53.706Z,-8.52
2018-02-25T05:44:53.599Z,-8.49
2018-02-25T05:45:53.733Z,-8.56
2018-02-25T05:46:53.435Z,-8.52
2018-02-25T05:47:53.763Z,-8.56
2018-02-25T05:48:53.783Z,-8.59
2018-02-25T05:49:53.753Z,-8.63
2018-02-25T05:50:53.894Z,-8.6
2018-02-25T05:51:54.278Z,-8.66
2018-02-25T05:52:54.182Z,-8.6
2018-02-25T05:53:54.629Z,-8.56
2018-02-25T05:54:54.766Z,-8.49
2018-02-25T05:55:54.927Z,-8.63
2018-02-25T05:56:54.671Z,-8.7
2018-02-25T05:57:55.084Z,-8.74
2018-02-25T05:58:55.714Z,-8.72
2018-02-25T05:59:55.757Z,-8.69
2018-02-25T06:00:55.744Z,-8.59
2018-02-25T06:01:55.876Z,-8.74
2018-02-25T06:02:55.750Z,-8.65
2018-02-25T06:03:55.836Z,-8.69
2018-02-25T06:04:56.233Z,-8.66
2018-02-25T06:05:56.397Z,-8.69
2018-02-25T06:06:56.595Z,-8.66
2018-02-25T06:07:56.236Z,-8.7
2018-02-25T06:08:56.672Z,-8.66
2018-02-25T06:09:56.867Z,-8.57
2018-02-25T06:10:56.391Z,-8.56
2018-02-25T06:11:57.450Z,-8.51
2018-02-25T06:12:57.277Z,-8.52
2018-02-25T06:13:57.330Z,-8.57
2018-02-25T06:14:57.255Z,-8.62
2018-02-25T06:15:57.431Z,-8.54
2018-02-25T06:16:57.108Z,-8.54
2018-02-25T06:17:57.117Z,-8.54
2018-02-25T06:18:56.989Z,-8.46
2018-02-25T06:19:57.013Z,-8.46
2018-02-25T06:20:57.152Z,-8.52
2018-02-25T06:21:57.908Z,-8.48
2018-02-25T06:22:57.773Z,-8.62
2018-02-25T06:23:57.818Z,-8.59
2018-02-25T06:24:57.990Z,-8.59
2018-02-25T06:25:58.186Z,-8.57
2018-02-25T06:26:57.979Z,-8.57
2018-02-25T06:27:58.100Z,-8.56
2018-02-25T06:28:58.590Z,-8.49
2018-02-25T06:29:58.535Z,-8.51
2018-02-25T06:30:58.332Z,-8.54
2018-02-25T06:31:58.806Z,-8.48
2018-02-25T06:32:58.318Z,-8.54
2018-02-25T06:33:58.769Z,-8.52
2018-02-25T06:34:58.618Z,-8.51
2018-02-25T06:35:58.734Z,-8.46
2018-02-25T06:36:58.472Z,-8.42
2018-02-25T06:37:58.822Z,-8.36
2018-02-25T06:38:59.065Z,-8.28
2018-02-25T06:39:59.048Z,-8.3
2018-02-25T06:40:58.817Z,-8.2
2018-02-25T06:41:59.008Z,-8.23
2018-02-25T06:42:59.486Z,-8.27
2018-02-25T06:43:59.693Z,-8.31
2018-02-25T06:45:00.292Z,-8.31
2018-02-25T06:45:59.470Z,-8.18
2018-02-25T06:46:59.582Z,-8.15
2018-02-25T06:47:59.397Z,-8.12
2018-02-25T06:48:59.052Z,-8.15
2018-02-25T06:49:59.892Z,-8.1
2018-02-25T06:50:59.636Z,-8.13
2018-02-25T06:51:59.920Z,-8.1
2018-02-25T06:53:00.058Z,-8.12
2018-02-25T06:54:00.568Z,-8.09
2018-02-25T06:55:00.299Z,-8.1
2018-02-25T06:56:01.103Z,-8.16
2018-02-25T06:57:01.522Z,-8.07
2018-02-25T06:58:00.769Z,-8.06
2018-02-25T06:59:00.700Z,-8.03
2018-02-25T07:00:00.885Z,-7.9
2018-02-25T07:01:00.620Z,-7.96
2018-02-25T07:02:00.985Z,-7.9
2018-02-25T07:03:00.741Z,-7.9
2018-02-25T07:04:00.928Z,-7.91
2018-02-25T07:05:00.461Z,-7.76
2018-02-25T07:06:01.160Z,-7.69
2018-02-25T07:07:00.905Z,-7.69
2018-02-25T07:08:01.316Z,-7.58
2018-02-25T07:09:01.242Z,-7.51
2018-02-25T07:10:01.608Z,-7.45
2018-02-25T07:11:01.619Z,-7.55
2018-02-25T07:12:02.170Z,-7.42
2018-02-25T07:13:02.047Z,-7.36
2018-02-25T07:14:01.928Z,-7.31
2018-02-25T07:15:01.760Z,-7.3
2018-02-25T07:16:02.243Z,-7.24
2018-02-25T07:17:02.246Z,-7.22
2018-02-25T07:18:01.561Z,-7.2
2018-02-25T07:19:02.077Z,-7.05
2018-02-25T07:20:02.282Z,-7.02
2018-02-25T07:21:01.981Z,-6.99
2018-02-25T07:22:02.523Z,-6.87
2018-02-25T07:23:02.672Z,-6.88
2018-02-25T07:24:02.071Z,-6.81
2018-02-25T07:25:02.216Z,-6.7
2018-02-25T07:26:03.009Z,-6.73
2018-02-25T07:27:02.532Z,-6.71
2018-02-25T07:28:02.314Z,-6.71
2018-02-25T07:29:02.342Z,-6.65
2018-02-25T07:30:03.054Z,-6.54
2018-02-25T07:31:03.478Z,-6.59
2018-02-25T07:32:02.984Z,-6.48
2018-02-25T07:33:02.738Z,-6.49
2018-02-25T07:34:03.142Z,-6.38
2018-02-25T07:35:03.934Z,-6.46
2018-02-25T07:36:03.493Z,-6.34
2018-02-25T07:37:04.079Z,-6.33
2018-02-25T07:38:03.133Z,-6.38
2018-02-25T07:39:03.731Z,-6.33
2018-02-25T07:40:03.986Z,-6.26
2018-02-25T07:41:03.816Z,-6.16
2018-02-25T07:42:03.340Z,-6.19
2018-02-25T07:43:04.006Z,-6.2
2018-02-25T07:44:03.383Z,-6.18
2018-02-25T07:45:05.393Z,-6.04
2018-02-25T07:46:04.618Z,-5.98
2018-02-25T07:47:05.377Z,-5.91
2018-02-25T07:48:04.538Z,-5.76
2018-02-25T07:49:04.556Z,-5.59
2018-02-25T07:50:04.362Z,-5.6
2018-02-25T07:51:04.689Z,-5.26
2018-02-25T07:52:04.610Z,-4.69
2018-02-25T07:53:05.306Z,-3.94
2018-02-25T07:54:04.660Z,-3.15
2018-02-25T07:55:04.919Z,-2.42
2018-02-25T07:56:04.872Z,-1.74
2018-02-25T07:57:04.859Z,-1.24
2018-02-25T07:58:04.581Z,-0.49
2018-02-25T07:59:04.624Z,0.03
2018-02-25T08:00:17.851Z,0.48
2018-02-25T08:01:04.657Z,0.38
2018-02-25T08:02:05.164Z,0.23
2018-02-25T08:03:04.899Z,0.05
2018-02-25T08:04:05.057Z,-0.19
2018-02-25T08:05:05.822Z,-0.58
2018-02-25T08:06:05.765Z,-1.03
2018-02-25T08:07:06.114Z,-1.31
2018-02-25T08:08:06.252Z,-1.71
2018-02-25T08:09:06.101Z,-1.79
2018-02-25T08:10:06.346Z,-1.63
2018-02-25T08:11:06.489Z,-0.99
2018-02-25T08:12:06.553Z,-0.05
2018-02-25T08:13:06.603Z,0.75
2018-02-25T08:14:06.466Z,1.18
2018-02-25T08:15:06.973Z,1.1
2018-02-25T08:16:06.977Z,1.33
2018-02-25T08:17:06.651Z,1.53
2018-02-25T08:18:07.189Z,2.08
2018-02-25T08:19:07.295Z,2.4
2018-02-25T08:20:07.589Z,2.76
2018-02-25T08:21:07.765Z,2.99
2018-02-25T08:22:07.608Z,2.98
2018-02-25T08:23:08.063Z,3.14
2018-02-25T08:24:08.054Z,3.45
2018-02-25T08:25:08.053Z,3.58
2018-02-25T08:26:07.893Z,3.45
2018-02-25T08:27:08.096Z,3.39
2018-02-25T08:28:08.125Z,3.51
2018-02-25T08:29:08.119Z,3.9
2018-02-25T08:30:08.342Z,4.4
2018-02-25T08:31:08.818Z,5.2
2018-02-25T08:32:09.244Z,5.99
2018-02-25T08:33:09.218Z,6.25
2018-02-25T08:34:09.448Z,6.44
2018-02-25T08:35:09.487Z,7.01
2018-02-25T08:36:09.708Z,7.45
2018-02-25T08:37:09.567Z,7.95
2018-02-25T08:38:09.913Z,7.83
2018-02-25T08:39:09.634Z,7.78
2018-02-25T08:40:10.209Z,7.99
2018-02-25T08:41:09.677Z,8.65
2018-02-25T08:42:10.203Z,9.21
2018-02-25T08:43:09.910Z,9.8
2018-02-25T08:44:10.342Z,10.26
2018-02-25T08:45:10.391Z,10.41
2018-02-25T08:46:10.335Z,10.31
2018-02-25T08:47:10.366Z,9.5
2018-02-25T08:48:09.876Z,9.19
2018-02-25T08:49:11.965Z,9.08
2018-02-25T08:50:10.835Z,8.34
2018-02-25T08:51:11.083Z,8.53
2018-02-25T08:52:11.519Z,9.03
2018-02-25T08:53:12.554Z,9.84
2018-02-25T08:54:12.169Z,10.58
2018-02-25T08:55:12.159Z,11.28
2018-02-25T08:56:11.912Z,11.71
2018-02-25T08:57:12.784Z,12.33
2018-02-25T08:58:12.833Z,12.96
2018-02-25T08:59:12.216Z,13.78
2018-02-25T09:00:44.527Z,14.33
2018-02-25T09:01:44.744Z,14.49
2018-02-25T09:02:44.487Z,14.03
2018-02-25T09:03:44.919Z,13.29
2018-02-25T09:04:44.884Z,12.98
2018-02-25T09:05:45.419Z,12.45
2018-02-25T09:06:44.982Z,11.98
2018-02-25T09:07:44.958Z,11.97
2018-02-25T09:08:45.853Z,12.43
2018-02-25T09:09:45.375Z,12.77
2018-02-25T09:10:46.324Z,12.8
2018-02-25T09:11:46.594Z,12.95
2018-02-25T09:12:46.257Z,13.03
2018-02-25T09:13:45.924Z,13.2
2018-02-25T09:14:46.452Z,13.51
2018-02-25T09:15:46.321Z,13.78
2018-02-25T09:16:47.171Z,13.7
2018-02-25T09:17:46.726Z,13.68
2018-02-25T09:18:46.630Z,14.01
2018-02-25T09:19:46.634Z,14.03
2018-02-25T09:20:47.305Z,14.15
2018-02-25T09:21:47.680Z,14.27
2018-02-25T09:22:48.066Z,14.59
2018-02-25T09:23:47.913Z,14.42
2018-02-25T09:24:48.361Z,14.59
2018-02-25T09:25:48.518Z,15.04
2018-02-25T09:26:48.725Z,15.16
2018-02-25T09:27:48.271Z,15.45
2018-02-25T09:28:48.770Z,15.68
2018-02-25T09:29:49.175Z,15.8
2018-02-25T09:30:48.943Z,15.83
2018-02-25T09:31:49.237Z,15.49
2018-02-25T09:32:49.031Z,15.02
2018-02-25T09:33:49.336Z,13.62
2018-02-25T09:34:49.099Z,13.17
2018-02-25T09:35:49.170Z,12.99
2018-02-25T09:36:49.120Z,13.31
2018-02-25T09:37:49.524Z,13.48
2018-02-25T09:38:49.243Z,13.6
2018-02-25T09:39:49.900Z,13.7
2018-02-25T09:40:50.120Z,14.21
2018-02-25T09:41:50.656Z,14.64
2018-02-25T09:42:50.592Z,14.75
2018-02-25T09:43:50.813Z,14.66
2018-02-25T09:44:51.615Z,15.22
2018-02-25T09:45:51.364Z,15.56
2018-02-25T09:46:51.904Z,15.41
2018-02-25T09:47:51.787Z,15.4
2018-02-25T09:48:51.441Z,15
2018-02-25T09:49:51.199Z,14.83
2018-02-25T09:50:51.270Z,14.23
2018-02-25T09:51:51.519Z,13.55
2018-02-25T09:52:51.816Z,13.76
2018-02-25T09:53:51.591Z,13.94
2018-02-25T09:54:51.843Z,13.51
2018-02-25T09:55:51.655Z,13.5
2018-02-25T09:56:51.423Z,13.72
2018-02-25T09:57:51.939Z,13.88
2018-02-25T09:58:51.926Z,14.31
2018-02-25T09:59:51.947Z,14.67
2018-02-25T10:00:52.336Z,14.42
2018-02-25T10:01:52.309Z,14.15
2018-02-25T10:02:53.207Z,14.53
2018-02-25T10:03:52.042Z,14.28
2018-02-25T10:04:52.287Z,14.33
2018-02-25T10:05:52.350Z,13.7
2018-02-25T10:06:52.064Z,13.75
2018-02-25T10:07:52.313Z,13.72
2018-02-25T10:08:52.104Z,13.86
2018-02-25T10:09:52.450Z,14.15
2018-02-25T10:10:52.208Z,14.36
2018-02-25T10:11:52.215Z,15
2018-02-25T10:12:52.309Z,15.73
2018-02-25T10:13:52.310Z,15.88
2018-02-25T10:14:52.569Z,16
2018-02-25T10:15:53.115Z,16.32
2018-02-25T10:16:52.621Z,16.47
2018-02-25T10:17:52.623Z,16.47
2018-02-25T10:18:52.819Z,16.29
2018-02-25T10:19:52.357Z,16.39
2018-02-25T10:20:53.116Z,16.57
2018-02-25T10:21:52.873Z,15.91
2018-02-25T10:22:52.750Z,15.31
2018-02-25T10:23:52.821Z,15.55
2018-02-25T10:24:53.537Z,15.7
2018-02-25T10:25:53.281Z,15.86
2018-02-25T10:26:53.419Z,16.18
2018-02-25T10:27:53.819Z,16.67
2018-02-25T10:28:54.509Z,17.17
2018-02-25T10:29:54.584Z,17.49
2018-02-25T10:30:54.601Z,17.66
2018-02-25T10:31:54.624Z,17.62
2018-02-25T10:32:55.086Z,17.47
2018-02-25T10:33:55.076Z,17.36
2018-02-25T10:34:55.269Z,17.21
2018-02-25T10:35:55.292Z,16.54
2018-02-25T10:36:55.739Z,16.48
2018-02-25T10:37:55.732Z,15.88
2018-02-25T10:38:55.805Z,15.89
2018-02-25T10:39:55.565Z,15.83
2018-02-25T10:40:56.259Z,16.21
2018-02-25T10:41:56.129Z,15.86
2018-02-25T10:42:56.193Z,15.4
2018-02-25T10:43:55.850Z,15.56
2018-02-25T10:44:56.217Z,15.88
2018-02-25T10:45:56.197Z,16.22
2018-02-25T10:46:56.240Z,16.62
2018-02-25T10:47:56.246Z,16.95
2018-02-25T10:48:56.711Z,17.38
2018-02-25T10:49:56.659Z,17.54
2018-02-25T10:50:56.732Z,17.99
2018-02-25T10:51:56.865Z,18.24
2018-02-25T10:52:56.969Z,18.56
2018-02-25T10:53:57.016Z,18.5
2018-02-25T10:54:57.119Z,18.02
2018-02-25T10:55:57.069Z,18.03
2018-02-25T10:56:57.269Z,17.87
2018-02-25T10:57:57.407Z,17.96
2018-02-25T10:58:57.844Z,18.02
2018-02-25T10:59:58.239Z,17.98
2018-02-25T11:00:58.289Z,18.2
2018-02-25T11:01:58.229Z,18.32
2018-02-25T11:02:58.324Z,17.36
2018-02-25T11:03:58.597Z,16.48
2018-02-25T11:04:58.885Z,15.81
2018-02-25T11:05:58.716Z,15.74
2018-02-25T11:06:58.744Z,15.95
2018-02-25T11:07:58.785Z,15.74
2018-02-25T11:08:59.008Z,14.49
2018-02-25T11:09:59.111Z,14.24
2018-02-25T11:10:59.618Z,13.62
2018-02-25T11:11:59.488Z,12.94
2018-02-25T11:12:59.255Z,12.31
2018-02-25T11:13:59.603Z,11.51
2018-02-25T11:14:59.923Z,11.46
2018-02-25T11:16:00.380Z,11.33
2018-02-25T11:17:00.176Z,11.85
2018-02-25T11:18:01.446Z,12
2018-02-25T11:19:01.035Z,12.29
2018-02-25T11:20:01.242Z,12.1
2018-02-25T11:21:01.338Z,11.98
2018-02-25T11:22:01.105Z,12.28
2018-02-25T11:23:01.478Z,12.62
2018-02-25T11:24:01.501Z,12.92
2018-02-25T11:25:02.163Z,13.53
2018-02-25T11:26:02.296Z,14.03
2018-02-25T11:27:05.298Z,14.52
2018-02-25T11:28:02.244Z,14.93
2018-02-25T11:29:02.309Z,15.38
2018-02-25T11:30:02.563Z,15.47
2018-02-25T11:31:02.268Z,15.73
2018-02-25T11:32:02.879Z,15.98
2018-02-25T11:33:04.198Z,16.36
2018-02-25T11:34:03.824Z,16.36
2018-02-25T11:35:03.723Z,16.04
2018-02-25T11:36:03.420Z,15.91
2018-02-25T11:37:03.471Z,15.8
2018-02-25T11:38:03.736Z,15.31
2018-02-25T11:39:03.772Z,14.9
2018-02-25T11:40:03.661Z,14.38
2018-02-25T11:41:03.623Z,13.84
2018-02-25T11:42:04.021Z,13.09
2018-02-25T11:43:04.055Z,11.79
2018-02-25T11:44:03.521Z,11.18
2018-02-25T11:45:05.428Z,11.18
2018-02-25T11:46:04.307Z,11.08
2018-02-25T11:47:04.409Z,11.3
2018-02-25T11:48:04.257Z,10.95
2018-02-25T11:49:04.449Z,10.97
2018-02-25T11:50:04.904Z,11.21
2018-02-25T11:51:04.520Z,10.59
2018-02-25T11:52:04.315Z,8.44
2018-02-25T11:53:04.309Z,7.51
2018-02-25T11:54:04.335Z,7.52
2018-02-25T11:55:04.429Z,7.67
2018-02-25T11:56:04.420Z,8.04
2018-02-25T11:57:04.406Z,7.99
2018-02-25T11:58:04.711Z,7.91
2018-02-25T11:59:04.722Z,7.86
2018-02-25T12:01:07.051Z,7.29
2018-02-25T12:02:06.226Z,7.47
2018-02-25T12:03:04.798Z,6.95
2018-02-25T12:04:04.988Z,6.79
2018-02-25T12:05:05.307Z,6.39
2018-02-25T12:06:05.310Z,5.87
2018-02-25T12:07:05.515Z,5.6
2018-02-25T12:08:05.316Z,5.57
2018-02-25T12:09:05.508Z,5.66
2018-02-25T12:10:06.271Z,5.77
2018-02-25T12:11:05.676Z,5.52
2018-02-25T12:12:06.171Z,4.9
2018-02-25T12:13:06.682Z,4.4
2018-02-25T12:14:06.384Z,4.14
2018-02-25T12:15:08.135Z,3.85
2018-02-25T12:16:07.752Z,3.49
2018-02-25T12:17:07.957Z,2.85
2018-02-25T12:18:07.969Z,2.42
2018-02-25T12:19:08.605Z,2.33
2018-02-25T12:20:08.748Z,2.24
2018-02-25T12:21:10.220Z,2.11
2018-02-25T12:22:10.441Z,1.92
2018-02-25T12:23:10.256Z,1.83
2018-02-25T12:24:09.919Z,1.75
2018-02-25T12:25:10.456Z,1.72
2018-02-25T12:26:10.693Z,1.6
2018-02-25T12:27:10.698Z,1.58
2018-02-25T12:28:11.409Z,1.46
2018-02-25T12:29:11.025Z,1.36
2018-02-25T12:30:11.020Z,1.11
2018-02-25T12:31:11.033Z,0.76
2018-02-25T12:32:11.317Z,0.57
2018-02-25T12:33:11.535Z,0.38
2018-02-25T12:34:11.548Z,0.28
2018-02-25T12:35:11.308Z,0.23
2018-02-25T12:36:11.727Z,0.26
2018-02-25T12:37:11.529Z,0.24
2018-02-25T12:38:11.712Z,0.26
2018-02-25T12:39:12.151Z,0.32
2018-02-25T12:40:12.594Z,0.32
2018-02-25T12:41:12.946Z,0.34
2018-02-25T12:42:13.275Z,0.41
2018-02-25T12:43:12.637Z,0.38
2018-02-25T12:44:13.044Z,0.44
2018-02-25T12:45:13.024Z,0.44
2018-02-25T12:46:12.324Z,0.48
2018-02-25T12:47:13.049Z,0.53
2018-02-25T12:48:12.471Z,0.5
2018-02-25T12:49:13.290Z,0.57
2018-02-25T12:50:13.345Z,0.47
2018-02-25T12:51:12.347Z,0.56
2018-02-25T12:52:12.375Z,0.53
2018-02-25T12:53:12.610Z,0.52
2018-02-25T12:54:13.060Z,0.41
2018-02-25T12:55:13.628Z,0.26
2018-02-25T12:56:12.723Z,0.13
2018-02-25T12:57:13.106Z,0.08
2018-02-25T12:58:13.008Z,-0.01
2018-02-25T12:59:12.637Z,-0.09
2018-02-25T13:00:25.616Z,-0.1
2018-02-25T13:01:14.559Z,-0.2
2018-02-25T13:02:13.955Z,-0.28
2018-02-25T13:03:12.622Z,-0.23